createdAt,value
2022-10-30T00:01:04.040Z,94270.78
2022-10-30T00:06:08.478Z,94266.75
2022-10-30T00:11:13.566Z,94256.84
2022-10-30T00:16:17.573Z,94265.31
2022-10-30T00:21:21.167Z,94260.09
2022-10-30T00:26:25.859Z,94246.28
2022-10-30T00:31:29.854Z,94251.38
2022-10-30T00:36:33.514Z,94251.72
2022-10-30T00:41:39.724Z,94253.59
2022-10-30T00:46:43.100Z,94249.56
2022-10-30T00:51:50.987Z,94248.91
2022-10-30T00:56:54.982Z,94242.84
2022-10-30T01:02:01.943Z,94236.72
2022-10-30T01:07:13.120Z,94244.19
2022-10-30T01:12:17.344Z,94235.06
2022-10-30T01:17:54.984Z,94234.63
2022-10-30T01:23:21.751Z,94233.22
2022-10-30T01:28:44.052Z,94226.56
2022-10-30T01:34:11.600Z,94211.13
2022-10-30T01:39:20.151Z,94203.72
2022-10-30T01:44:33.554Z,94205.69
2022-10-30T01:49:48.568Z,94195.50
2022-10-30T01:55:14.663Z,94171.16
2022-10-30T02:00:20.682Z,94154.56
2022-10-30T02:05:41.442Z,94174.81
2022-10-30T02:10:47.759Z,94165.59
2022-10-30T02:15:51.604Z,94171.28
2022-10-30T02:20:55.671Z,94167.19
2022-10-30T02:25:59.336Z,94160.53
2022-10-30T02:31:04.041Z,94164.34
2022-10-30T02:36:07.502Z,94165.59
2022-10-30T02:41:12.173Z,94165.38
2022-10-30T02:46:15.773Z,94161.19
2022-10-30T02:51:18.768Z,94157.75
2022-10-30T02:56:21.985Z,94157.44
2022-10-30T03:01:25.758Z,94173.03
2022-10-30T03:06:33.486Z,94168.13
2022-10-30T03:11:37.220Z,94165.97
2022-10-30T03:16:40.726Z,94160.00
2022-10-30T03:21:43.883Z,94166.31
2022-10-30T03:26:48.942Z,94164.84
2022-10-30T03:31:52.444Z,94170.66
2022-10-30T03:36:57.152Z,94167.94
2022-10-30T03:42:00.119Z,94174.50
2022-10-30T03:47:04.006Z,94153.63
2022-10-30T03:52:15.633Z,94172.84
2022-10-30T03:57:19.121Z,94172.06
2022-10-30T04:02:44.746Z,94177.59
2022-10-30T04:07:48.892Z,94158.59
2022-10-30T04:12:53.139Z,94168.34
2022-10-30T04:17:57.588Z,94183.38
2022-10-30T04:23:04.488Z,94184.97
2022-10-30T04:28:09.301Z,94187.69
2022-10-30T04:33:15.147Z,94187.25
2022-10-30T04:38:19.879Z,94172.56
2022-10-30T04:43:24.043Z,94204.44
2022-10-30T04:48:29.466Z,94194.19
2022-10-30T04:53:32.794Z,94192.59
2022-10-30T04:58:41.753Z,94196.19
2022-10-30T05:03:49.279Z,94192.53
2022-10-30T05:08:57.069Z,94199.88
2022-10-30T05:14:20.308Z,94192.69
2022-10-30T05:19:24.055Z,94194.38
2022-10-30T05:24:33.077Z,94188.19
2022-10-30T05:29:37.110Z,94200.56
2022-10-30T05:34:40.691Z,94190.78
2022-10-30T05:39:44.882Z,94199.13
2022-10-30T05:45:01.395Z,94199.88
2022-10-30T05:50:08.838Z,94199.88
2022-10-30T05:55:12.645Z,94203.13
2022-10-30T06:00:36.630Z,94180.06
2022-10-30T06:05:40.018Z,94197.69
2022-10-30T06:10:43.723Z,94195.44
2022-10-30T06:15:58.516Z,94209.16
2022-10-30T06:21:10.043Z,94190.34
2022-10-30T06:26:31.714Z,94186.28
2022-10-30T06:31:41.136Z,94180.97
2022-10-30T06:36:44.556Z,94181.28
2022-10-30T06:41:48.605Z,94191.88
2022-10-30T06:47:04.115Z,94184.88
2022-10-30T06:52:07.368Z,94189.22
2022-10-30T06:57:10.442Z,94184.63
2022-10-30T07:02:22.241Z,94193.44
2022-10-30T07:07:32.624Z,94189.28
2022-10-30T07:12:37.209Z,94193.03
2022-10-30T07:17:57.581Z,94197.72
2022-10-30T07:23:02.070Z,94198.47
2022-10-30T07:28:05.505Z,94196.59
2022-10-30T07:33:32.036Z,94196.59
2022-10-30T07:39:01.533Z,94202.31
2022-10-30T07:44:11.935Z,94200.88
2022-10-30T07:49:23.191Z,94204.09
2022-10-30T07:54:30.768Z,94193.31
2022-10-30T07:59:42.211Z,94203.72
2022-10-30T08:04:57.041Z,94194.00
2022-10-30T08:10:20.421Z,94195.97
2022-10-30T08:15:24.172Z,94195.06
2022-10-30T08:20:27.962Z,94185.66
2022-10-30T08:25:32.655Z,94176.56
2022-10-30T08:30:37.811Z,94193.75
2022-10-30T08:35:53.734Z,94181.06
2022-10-30T08:40:56.887Z,94191.13
2022-10-30T08:46:00.864Z,94183.97
2022-10-30T08:51:04.531Z,94184.50
2022-10-30T08:56:12.411Z,94193.69
2022-10-30T09:01:26.236Z,94195.19
2022-10-30T09:06:48.740Z,94202.16
2022-10-30T09:12:12.584Z,94201.75
2022-10-30T09:17:20.376Z,94198.78
2022-10-30T09:22:24.301Z,94190.09
2022-10-30T09:27:29.081Z,94194.16
2022-10-30T09:32:35.801Z,94203.56
2022-10-30T09:37:46.298Z,94202.59
2022-10-30T09:42:57.316Z,94197.78
2022-10-30T09:48:22.467Z,94199.22
2022-10-30T09:54:03.563Z,94198.28
2022-10-30T09:59:18.681Z,94189.84
2022-10-30T10:04:44.475Z,94182.59
2022-10-30T10:09:52.458Z,94172.78
2022-10-30T10:15:26.459Z,94171.19
2022-10-30T10:20:42.093Z,94172.78
2022-10-30T10:25:54.100Z,94169.97
2022-10-30T10:31:03.773Z,94170.34
2022-10-30T10:36:54.939Z,94181.25
2022-10-30T10:42:24.977Z,94179.22
2022-10-30T10:48:01.699Z,94170.56
2022-10-30T10:53:11.658Z,94162.19
2022-10-30T10:58:36.793Z,94157.31
2022-10-30T11:04:01.829Z,94149.41
2022-10-30T11:09:24.854Z,94152.13
2022-10-30T11:14:31.726Z,94145.28
2022-10-30T11:19:35.181Z,94144.56
2022-10-30T11:24:38.702Z,94146.94
2022-10-30T11:29:49.506Z,94139.69
2022-10-30T11:35:11.081Z,94132.13
2022-10-30T11:40:15.218Z,94126.84
2022-10-30T11:45:26.114Z,94118.28
2022-10-30T11:50:33.379Z,94101.69
2022-10-30T11:55:42.173Z,94121.78
2022-10-30T12:00:45.905Z,94107.22
2022-10-30T12:05:50.364Z,94098.94
2022-10-30T12:10:53.500Z,94095.75
2022-10-30T12:16:13.189Z,94093.44
2022-10-30T12:21:20.587Z,94078.00
2022-10-30T12:26:25.565Z,94061.53
2022-10-30T12:31:35.520Z,94061.25
2022-10-30T12:37:04.259Z,94089.47
2022-10-30T12:42:17.159Z,94083.25
2022-10-30T12:47:41.384Z,94059.28
2022-10-30T12:52:54.140Z,94067.06
2022-10-30T12:58:15.668Z,94078.38
2022-10-30T13:03:33.210Z,94068.44
2022-10-30T13:09:23.608Z,94074.75
2022-10-30T13:14:54.505Z,94074.13
2022-10-30T13:19:58.362Z,94081.50
2022-10-30T13:25:30.369Z,94082.63
2022-10-30T13:30:45.968Z,94079.31
2022-10-30T13:36:21.518Z,94084.22
2022-10-30T13:41:46.339Z,94085.75
2022-10-30T13:47:04.518Z,94083.41
2022-10-30T13:52:18.035Z,94073.31
2022-10-30T13:57:35.263Z,94074.41
2022-10-30T14:02:48.192Z,94084.94
2022-10-30T14:08:06.366Z,94080.06
2022-10-30T14:13:28.849Z,94072.25
2022-10-30T14:18:45.855Z,94078.16
2022-10-30T14:23:48.959Z,94075.25
2022-10-30T14:28:55.607Z,94078.44
2022-10-30T14:33:58.690Z,94062.22
2022-10-30T14:39:28.527Z,94078.25
2022-10-30T14:44:56.266Z,94081.38
2022-10-30T14:50:16.022Z,94076.41
2022-10-30T14:55:31.946Z,94083.31
2022-10-30T15:00:43.260Z,94073.91
2022-10-30T15:05:49.376Z,94081.41
2022-10-30T15:11:10.121Z,94081.47
2022-10-30T15:16:18.244Z,94087.59
2022-10-30T15:21:25.819Z,94080.50
2022-10-30T15:26:40.701Z,94090.84
2022-10-30T15:31:44.311Z,94083.03
2022-10-30T15:36:47.650Z,94076.59
2022-10-30T15:41:57.874Z,94082.31
2022-10-30T15:47:04.511Z,94090.84
2022-10-30T15:52:26.921Z,94091.59
2022-10-30T15:58:02.836Z,94087.66
2022-10-30T16:03:03.829Z,94086.63
2022-10-30T16:08:17.110Z,94085.41
2022-10-30T16:13:25.627Z,94097.78
2022-10-30T16:18:32.382Z,94105.47
2022-10-30T16:23:55.443Z,94111.03
2022-10-30T16:29:14.174Z,94113.13
2022-10-30T16:34:32.183Z,94105.44
2022-10-30T16:39:38.482Z,94110.19
2022-10-30T16:44:41.515Z,94118.13
2022-10-30T16:49:58.084Z,94118.91
2022-10-30T16:55:06.228Z,94111.06
2022-10-30T17:00:35.447Z,94138.56
2022-10-30T17:05:43.850Z,94143.22
2022-10-30T17:11:00.207Z,94137.31
2022-10-30T17:16:25.534Z,94141.56
2022-10-30T17:21:41.295Z,94151.72
2022-10-30T17:26:56.653Z,94148.09
2022-10-30T17:32:00.554Z,94154.28
2022-10-30T17:37:04.782Z,94158.16
2022-10-30T17:42:10.052Z,94166.75
2022-10-30T17:47:19.710Z,94168.66
2022-10-30T17:52:22.747Z,94159.97
2022-10-30T17:57:27.322Z,94168.94
2022-10-30T18:02:30.700Z,94172.75
2022-10-30T18:07:33.982Z,94182.22
2022-10-30T18:12:37.709Z,94178.88
2022-10-30T18:17:41.018Z,94163.72
2022-10-30T18:22:44.718Z,94178.97
2022-10-30T18:27:47.846Z,94180.00
2022-10-30T18:32:51.470Z,94185.44
2022-10-30T18:37:55.674Z,94179.06
2022-10-30T18:43:00.182Z,94182.91
2022-10-30T18:48:04.841Z,94147.25
2022-10-30T18:53:18.107Z,94189.81
2022-10-30T18:58:21.313Z,94201.94
2022-10-30T19:03:25.479Z,94203.94
2022-10-30T19:08:28.588Z,94207.19
2022-10-30T19:13:32.066Z,94190.94
2022-10-30T19:18:37.214Z,94209.69
2022-10-30T19:23:40.649Z,94203.31
2022-10-30T19:28:45.257Z,94207.16
2022-10-30T19:33:52.900Z,94197.59
2022-10-30T19:39:05.777Z,94212.88
2022-10-30T19:44:10.797Z,94187.41
2022-10-30T19:49:21.258Z,94202.97
2022-10-30T19:54:24.711Z,94212.63
2022-10-30T19:59:29.254Z,94211.28
2022-10-30T20:04:33.135Z,94205.16
2022-10-30T20:09:37.349Z,94202.06
2022-10-30T20:14:44.203Z,94199.81
2022-10-30T20:19:47.819Z,94198.34
2022-10-30T20:24:50.798Z,94197.16
2022-10-30T20:29:53.891Z,94204.91
2022-10-30T20:34:56.838Z,94198.09
2022-10-30T20:40:00.436Z,94190.22
2022-10-30T20:45:04.441Z,94185.88
2022-10-30T20:50:08.504Z,94210.66
2022-10-30T20:55:13.093Z,94209.22
2022-10-30T21:00:19.245Z,94215.50
2022-10-30T21:05:42.748Z,94201.94
2022-10-30T21:10:48.829Z,94205.91
2022-10-30T21:15:53.436Z,94207.44
2022-10-30T21:21:05.242Z,94204.34
2022-10-30T21:26:11.200Z,94206.63
2022-10-30T21:31:15.997Z,94197.25
2022-10-30T21:36:20.305Z,94201.91
2022-10-30T21:41:25.746Z,94202.91
2022-10-30T21:46:31.401Z,94201.56
2022-10-30T21:51:34.940Z,94193.94
2022-10-30T21:56:38.123Z,94201.72
2022-10-30T22:01:42.656Z,94202.31
2022-10-30T22:06:46.108Z,94202.13
2022-10-30T22:11:49.442Z,94186.16
2022-10-30T22:16:52.929Z,94195.56
2022-10-30T22:21:56.570Z,94198.72
2022-10-30T22:26:59.854Z,94187.72
2022-10-30T22:32:03.495Z,94185.31
2022-10-30T22:37:06.571Z,94181.03
2022-10-30T22:42:09.592Z,94180.13
2022-10-30T22:47:12.627Z,94183.00
2022-10-30T22:52:16.706Z,94169.28
2022-10-30T22:57:19.799Z,94183.84
2022-10-30T23:02:22.795Z,94180.22
2022-10-30T23:07:26.433Z,94169.13
2022-10-30T23:12:29.533Z,94174.97
2022-10-30T23:17:32.951Z,94174.66
2022-10-30T23:22:36.152Z,94174.88
2022-10-30T23:27:40.237Z,94177.19
2022-10-30T23:32:43.274Z,94168.94
2022-10-30T23:37:46.313Z,94166.78
2022-10-30T23:42:55.087Z,94148.81
2022-10-30T23:47:59.260Z,94133.50
2022-10-30T23:53:03.564Z,94151.59
2022-10-30T23:58:07.446Z,94151.78
